Carmi, Illinois
Current Conditions -  °F | °C
As of 1:55 PM on Saturday 25 Oct 2014 (Local Time) from KCUL Reporting Station
Clear Clear  
Wind Chill: 80°   Ceiling: Unl
Heat Index: 80°   Visibility: 10mi
Dew Point: 56°   Wind: 5mph
Humidity: 44%   Direction: 300°WNW
Pressure: 29.98"   Gusts: NA
Location:  38.09°N, 88.17°W
Report Text: KCUL 251855Z AUTO 30004KT 10SM CLR 27/14 A2998 RMK AO2 T02680136
Loading
Personal Weather Stations






























Interactive Weather Map
Tropical Storm Tracking
New forecast layout! Learn more

10-Day Weather Forecast

Advertisements
Track Severe Weather on mobile